Saturday, September 23, 2017, 1:36 AM EDT

KRIC, Richmond International Airport

Location: Sandston, VA, United States Lat: 37.517
Local Time: 1:36 AM EDT ( 5:36 GMT) Lon: -77.317
Time Zone: US/Eastern Elev: 167 ft

Show me the last for .
Show Decoded

2017-09-23 00:54 METAR KRIC 230454Z 00000KT 8SM FEW230 17/17 A3003 RMK AO2 SLP172 T01670167
                 402890167 =
2017-09-22 23:54 METAR KRIC 230354Z 00000KT 10SM FEW230 19/18 A3003 RMK AO2 SLP171 T01890178 =
2017-09-22 22:54 METAR KRIC 230254Z 00000KT 10SM FEW230 18/18 A3002 RMK AO2 SLP170 T01830178
                 51010 =
2017-09-22 21:54 METAR KRIC 230154Z 00000KT 10SM SCT230 20/19 A3002 RMK AO2 SLP169 T02000189 =
2017-09-22 20:54 METAR KRIC 230054Z 00000KT 10SM BKN230 BKN300 21/19 A3001 RMK AO2 SLP166
                 T02110189 =
2017-09-22 19:54 METAR KRIC 222354Z 00000KT 10SM BKN230 BKN300 23/19 A2999 RMK AO2 SLP160
                 T02330189 10278 20228 58001 =
2017-09-22 18:54 METAR KRIC 222254Z 00000KT 10SM BKN230 BKN300 26/18 A3000 RMK AO2 SLP161
                 T02610183 =
2017-09-22 17:54 METAR KRIC 222154Z 31004KT 10SM BKN220 BKN300 27/18 A2999 RMK AO2 SLP160
                 T02670183 =
2017-09-22 16:54 METAR KRIC 222054Z 01007KT 10SM FEW040 BKN190 OVC300 27/18 A3000 RMK AO2 SLP161
                 T02720183 56012 =
2017-09-22 15:54 METAR KRIC 221954Z 35006KT 10SM BKN210 28/19 A3001 RMK AO2 SLP164 T02780189 =
2017-09-22 14:54 METAR KRIC 221854Z 35007KT 10SM FEW040 BKN200 27/19 A3002 RMK AO2 SLP169
                 T02720194 $ =
2017-09-22 13:54 METAR KRIC 221754Z 04009KT 10SM FEW040 BKN200 28/19 A3003 RMK AO2 SLP173
                 T02780189 58013 $ =
2017-09-22 12:54 METAR KRIC 221654Z 03008KT 10SM FEW045 BKN200 29/19 A3005 RMK AO2 SLP180
                 T02890189 $ =
2017-09-22 11:54 METAR KRIC 221554Z COR 01005KT 10SM FEW040 BKN200 28/19 A3007 RMK AO2 SLP185
                 T02780194 =
2017-09-22 10:54 METAR KRIC 221454Z 01009KT 10SM BKN220 27/19 A3007 RMK AO2 SLP186 T02720189
                 50004 =
2017-09-22 09:54 METAR KRIC 221354Z 32006KT 10SM BKN250 24/18 A3008 RMK AO2 SLP188 T02390183 =
2017-09-22 08:54 METAR KRIC 221254Z 33005KT 10SM BKN240 22/18 A3008 RMK AO2 SLP189 T02220183 =
2017-09-22 07:54 METAR KRIC 221154Z 30005KT 10SM BKN240 21/18 A3006 RMK AO2 SLP181 T02110183
                 10211 20178 51007 =
2017-09-22 06:54 METAR KRIC 221054Z 34004KT 10SM BKN220 20/19 A3005 RMK AO2 SLP181 T02000189 =
2017-09-22 05:54 METAR KRIC 220954Z 29003KT 10SM BKN250 21/18 A3004 RMK AO2 SLP175 T02060183 =
2017-09-22 04:54 METAR KRIC 220854Z 32004KT 10SM BKN250 20/18 A3003 RMK AO2 SLP174 T02000183
                 55007 =
2017-09-22 03:54 METAR KRIC 220754Z 21003KT 10SM SCT250 19/18 A3003 RMK AO2 SLP173 T01890178 =
2017-09-22 02:54 METAR KRIC 220654Z 25003KT 10SM CLR 20/18 A3004 RMK AO2 SLP175 T02000178 =
2017-09-22 01:54 METAR KRIC 220554Z 00000KT 10SM FEW250 18/18 A3005 RMK AO2 SLP181 T01830178
                 10250 20183 50002 =

Support USWX by starting your Amazon purchase here.